sensor_id;sensor_type;location;lat;lon;timestamp;P1;durP1;ratioP1;P2;durP2;ratioP2
39874;SDS011;25547;52.530;13.194;2023-01-06T00:00:00;3.33;;;0.13;;
39874;SDS011;25547;52.530;13.194;2023-01-06T00:02:25;4.45;;;0.10;;
39874;SDS011;25547;52.530;13.194;2023-01-06T00:04:51;3.83;;;0.22;;
39874;SDS011;25547;52.530;13.194;2023-01-06T00:07:19;3.25;;;0.32;;
39874;SDS011;25547;52.530;13.194;2023-01-06T00:09:47;3.15;;;0.20;;
39874;SDS011;25547;52.530;13.194;2023-01-06T00:12:15;2.47;;;0.10;;
39874;SDS011;25547;52.530;13.194;2023-01-06T00:14:41;2.33;;;0.28;;
39874;SDS011;25547;52.530;13.194;2023-01-06T00:17:08;4.32;;;0.10;;
39874;SDS011;25547;52.530;13.194;2023-01-06T00:19:34;3.53;;;0.15;;
39874;SDS011;25547;52.530;13.194;2023-01-06T00:22:00;2.38;;;0.17;;
39874;SDS011;25547;52.530;13.194;2023-01-06T00:24:28;1.60;;;0.10;;
39874;SDS011;25547;52.530;13.194;2023-01-06T00:26:54;1.60;;;0.35;;
39874;SDS011;25547;52.530;13.194;2023-01-06T00:29:19;2.17;;;0.10;;
39874;SDS011;25547;52.530;13.194;2023-01-06T00:31:47;1.48;;;0.25;;
39874;SDS011;25547;52.530;13.194;2023-01-06T00:34:15;0.90;;;0.10;;
39874;SDS011;25547;52.530;13.194;2023-01-06T00:36:43;5.10;;;0.10;;
39874;SDS011;25547;52.530;13.194;2023-01-06T00:39:15;1.80;;;0.40;;
39874;SDS011;25547;52.530;13.194;2023-01-06T00:41:40;2.60;;;0.20;;
39874;SDS011;25547;52.530;13.194;2023-01-06T00:44:27;4.28;;;0.20;;
39874;SDS011;25547;52.530;13.194;2023-01-06T00:46:53;1.25;;;0.10;;
39874;SDS011;25547;52.530;13.194;2023-01-06T00:49:21;2.45;;;1.65;;
39874;SDS011;25547;52.530;13.194;2023-01-06T00:51:46;1.73;;;0.10;;
39874;SDS011;25547;52.530;13.194;2023-01-06T00:54:15;4.50;;;0.40;;
39874;SDS011;25547;52.530;13.194;2023-01-06T00:56:42;1.67;;;0.10;;
39874;SDS011;25547;52.530;13.194;2023-01-06T00:59:13;3.47;;;0.15;;
39874;SDS011;25547;52.530;13.194;2023-01-06T01:01:41;1.52;;;0.10;;
39874;SDS011;25547;52.530;13.194;2023-01-06T01:04:10;3.83;;;0.20;;
39874;SDS011;25547;52.530;13.194;2023-01-06T01:06:36;3.03;;;0.10;;
39874;SDS011;25547;52.530;13.194;2023-01-06T01:09:02;4.15;;;0.10;;
39874;SDS011;25547;52.530;13.194;2023-01-06T01:11:29;4.25;;;0.30;;
39874;SDS011;25547;52.530;13.194;2023-01-06T01:14:14;1.88;;;0.32;;
39874;SDS011;25547;52.530;13.194;2023-01-06T01:16:44;3.47;;;0.55;;
39874;SDS011;25547;52.530;13.194;2023-01-06T01:19:10;4.30;;;0.10;;
39874;SDS011;25547;52.530;13.194;2023-01-06T01:21:39;1.80;;;0.10;;
39874;SDS011;25547;52.530;13.194;2023-01-06T01:24:05;6.35;;;0.38;;
39874;SDS011;25547;52.530;13.194;2023-01-06T01:26:31;3.42;;;0.20;;
39874;SDS011;25547;52.530;13.194;2023-01-06T01:28:59;4.18;;;0.20;;
39874;SDS011;25547;52.530;13.194;2023-01-06T01:31:25;2.15;;;0.73;;
39874;SDS011;25547;52.530;13.194;2023-01-06T01:33:53;1.40;;;0.10;;
39874;SDS011;25547;52.530;13.194;2023-01-06T01:36:18;5.43;;;0.25;;
39874;SDS011;25547;52.530;13.194;2023-01-06T01:38:46;3.13;;;0.10;;
39874;SDS011;25547;52.530;13.194;2023-01-06T01:41:16;3.75;;;1.00;;
39874;SDS011;25547;52.530;13.194;2023-01-06T01:46:12;3.55;;;0.40;;
39874;SDS011;25547;52.530;13.194;2023-01-06T01:48:41;5.32;;;1.17;;
39874;SDS011;25547;52.530;13.194;2023-01-06T01:51:08;7.65;;;0.10;;
39874;SDS011;25547;52.530;13.194;2023-01-06T01:53:42;4.32;;;0.80;;
39874;SDS011;25547;52.530;13.194;2023-01-06T01:56:11;4.32;;;0.10;;
39874;SDS011;25547;52.530;13.194;2023-01-06T01:58:51;2.72;;;0.20;;
39874;SDS011;25547;52.530;13.194;2023-01-06T02:01:23;2.30;;;0.10;;
39874;SDS011;25547;52.530;13.194;2023-01-06T02:03:52;0.73;;;0.03;;
39874;SDS011;25547;52.530;13.194;2023-01-06T02:06:21;3.58;;;0.10;;
39874;SDS011;25547;52.530;13.194;2023-01-06T02:08:58;2.38;;;0.10;;
39874;SDS011;25547;52.530;13.194;2023-01-06T02:11:35;1.08;;;0.10;;
39874;SDS011;25547;52.530;13.194;2023-01-06T02:14:11;4.63;;;0.20;;
39874;SDS011;25547;52.530;13.194;2023-01-06T02:16:44;2.60;;;0.63;;
39874;SDS011;25547;52.530;13.194;2023-01-06T02:22:08;3.97;;;0.10;;
39874;SDS011;25547;52.530;13.194;2023-01-06T02:27:38;3.25;;;0.10;;
39874;SDS011;25547;52.530;13.194;2023-01-06T02:40:47;5.07;;;0.25;;
39874;SDS011;25547;52.530;13.194;2023-01-06T02:43:27;2.88;;;0.10;;
39874;SDS011;25547;52.530;13.194;2023-01-06T02:46:23;4.80;;;0.80;;
39874;SDS011;25547;52.530;13.194;2023-01-06T02:48:58;4.82;;;0.47;;
39874;SDS011;25547;52.530;13.194;2023-01-06T02:54:47;3.85;;;0.10;;
39874;SDS011;25547;52.530;13.194;2023-01-06T02:57:36;2.92;;;0.10;;
39874;SDS011;25547;52.530;13.194;2023-01-06T03:00:34;2.17;;;0.10;;
39874;SDS011;25547;52.530;13.194;2023-01-06T03:03:04;2.60;;;0.10;;
39874;SDS011;25547;52.530;13.194;2023-01-06T03:05:37;2.92;;;0.10;;
39874;SDS011;25547;52.530;13.194;2023-01-06T03:08:07;6.22;;;0.10;;
39874;SDS011;25547;52.530;13.194;2023-01-06T03:10:38;4.57;;;0.20;;
39874;SDS011;25547;52.530;13.194;2023-01-06T03:13:28;3.10;;;0.10;;
39874;SDS011;25547;52.530;13.194;2023-01-06T03:16:01;5.90;;;1.10;;
39874;SDS011;25547;52.530;13.194;2023-01-06T03:18:29;2.45;;;0.10;;
39874;SDS011;25547;52.530;13.194;2023-01-06T03:20:56;3.45;;;0.38;;
39874;SDS011;25547;52.530;13.194;2023-01-06T03:23:25;4.47;;;1.23;;
39874;SDS011;25547;52.530;13.194;2023-01-06T03:25:51;7.47;;;0.60;;
39874;SDS011;25547;52.530;13.194;2023-01-06T03:28:17;0.65;;;0.10;;
39874;SDS011;25547;52.530;13.194;2023-01-06T03:30:47;1.83;;;0.15;;
39874;SDS011;25547;52.530;13.194;2023-01-06T03:33:32;1.20;;;0.00;;
39874;SDS011;25547;52.530;13.194;2023-01-06T03:36:32;3.70;;;0.20;;
39874;SDS011;25547;52.530;13.194;2023-01-06T03:39:09;4.97;;;0.10;;
39874;SDS011;25547;52.530;13.194;2023-01-06T03:41:50;1.85;;;0.15;;
39874;SDS011;25547;52.530;13.194;2023-01-06T03:45:13;2.05;;;0.08;;
39874;SDS011;25547;52.530;13.194;2023-01-06T03:53:45;5.68;;;2.08;;
39874;SDS011;25547;52.530;13.194;2023-01-06T03:56:24;4.63;;;0.10;;
39874;SDS011;25547;52.530;13.194;2023-01-06T03:58:56;1.70;;;0.10;;
39874;SDS011;25547;52.530;13.194;2023-01-06T04:01:24;0.88;;;0.08;;
39874;SDS011;25547;52.530;13.194;2023-01-06T04:03:54;1.25;;;0.10;;
39874;SDS011;25547;52.530;13.194;2023-01-06T04:06:22;4.57;;;0.10;;
39874;SDS011;25547;52.530;13.194;2023-01-06T04:08:50;0.70;;;0.15;;
39874;SDS011;25547;52.530;13.194;2023-01-06T04:11:20;3.45;;;0.10;;
39874;SDS011;25547;52.530;13.194;2023-01-06T04:14:04;3.83;;;0.10;;
39874;SDS011;25547;52.530;13.194;2023-01-06T04:16:30;4.85;;;0.20;;
39874;SDS011;25547;52.530;13.194;2023-01-06T04:18:55;4.72;;;0.28;;
39874;SDS011;25547;52.530;13.194;2023-01-06T04:21:23;1.10;;;0.10;;
39874;SDS011;25547;52.530;13.194;2023-01-06T04:23:51;5.88;;;0.20;;
39874;SDS011;25547;52.530;13.194;2023-01-06T04:26:16;6.95;;;0.15;;
39874;SDS011;25547;52.530;13.194;2023-01-06T04:28:42;4.18;;;1.45;;
39874;SDS011;25547;52.530;13.194;2023-01-06T04:31:08;1.45;;;0.10;;
39874;SDS011;25547;52.530;13.194;2023-01-06T04:33:34;4.40;;;0.10;;
39874;SDS011;25547;52.530;13.194;2023-01-06T04:36:00;2.30;;;0.30;;
39874;SDS011;25547;52.530;13.194;2023-01-06T04:38:26;2.75;;;0.10;;
39874;SDS011;25547;52.530;13.194;2023-01-06T04:40:51;1.67;;;0.10;;
39874;SDS011;25547;52.530;13.194;2023-01-06T04:43:17;4.68;;;0.13;;
39874;SDS011;25547;52.530;13.194;2023-01-06T04:45:48;5.47;;;0.10;;
39874;SDS011;25547;52.530;13.194;2023-01-06T04:48:13;4.32;;;0.10;;
39874;SDS011;25547;52.530;13.194;2023-01-06T04:50:41;1.98;;;0.10;;
39874;SDS011;25547;52.530;13.194;2023-01-06T04:53:08;1.80;;;0.20;;
39874;SDS011;25547;52.530;13.194;2023-01-06T04:55:38;3.00;;;0.10;;
39874;SDS011;25547;52.530;13.194;2023-01-06T04:58:04;3.50;;;0.10;;
39874;SDS011;25547;52.530;13.194;2023-01-06T05:00:30;3.25;;;0.10;;
39874;SDS011;25547;52.530;13.194;2023-01-06T05:02:56;4.13;;;0.10;;
39874;SDS011;25547;52.530;13.194;2023-01-06T05:05:21;2.28;;;0.10;;
39874;SDS011;25547;52.530;13.194;2023-01-06T05:07:47;2.45;;;0.10;;
39874;SDS011;25547;52.530;13.194;2023-01-06T05:10:13;2.00;;;0.10;;
39874;SDS011;25547;52.530;13.194;2023-01-06T05:12:38;4.35;;;1.35;;
39874;SDS011;25547;52.530;13.194;2023-01-06T05:15:04;1.58;;;0.10;;
39874;SDS011;25547;52.530;13.194;2023-01-06T05:17:33;5.07;;;0.10;;
39874;SDS011;25547;52.530;13.194;2023-01-06T05:19:58;4.43;;;0.40;;
39874;SDS011;25547;52.530;13.194;2023-01-06T05:22:24;3.35;;;0.15;;
39874;SDS011;25547;52.530;13.194;2023-01-06T05:24:50;2.28;;;0.20;;
39874;SDS011;25547;52.530;13.194;2023-01-06T05:27:18;4.63;;;0.70;;
39874;SDS011;25547;52.530;13.194;2023-01-06T05:29:45;5.05;;;0.17;;
39874;SDS011;25547;52.530;13.194;2023-01-06T05:32:11;3.95;;;0.30;;
39874;SDS011;25547;52.530;13.194;2023-01-06T05:34:36;5.43;;;0.20;;
39874;SDS011;25547;52.530;13.194;2023-01-06T05:37:02;7.13;;;0.30;;
39874;SDS011;25547;52.530;13.194;2023-01-06T05:39:28;2.50;;;0.30;;
39874;SDS011;25547;52.530;13.194;2023-01-06T05:41:53;3.05;;;0.47;;
39874;SDS011;25547;52.530;13.194;2023-01-06T05:44:21;4.18;;;0.20;;
39874;SDS011;25547;52.530;13.194;2023-01-06T05:46:47;2.50;;;0.17;;
39874;SDS011;25547;52.530;13.194;2023-01-06T05:49:13;5.22;;;0.68;;
39874;SDS011;25547;52.530;13.194;2023-01-06T05:51:38;6.13;;;0.25;;
39874;SDS011;25547;52.530;13.194;2023-01-06T05:54:06;8.20;;;0.30;;
39874;SDS011;25547;52.530;13.194;2023-01-06T05:56:35;9.77;;;0.45;;
39874;SDS011;25547;52.530;13.194;2023-01-06T05:59:02;12.77;;;3.92;;
39874;SDS011;25547;52.530;13.194;2023-01-06T06:01:29;4.47;;;1.30;;
39874;SDS011;25547;52.530;13.194;2023-01-06T06:03:55;6.55;;;0.40;;
39874;SDS011;25547;52.530;13.194;2023-01-06T06:06:23;4.15;;;0.30;;
39874;SDS011;25547;52.530;13.194;2023-01-06T06:08:49;4.78;;;0.40;;
39874;SDS011;25547;52.530;13.194;2023-01-06T06:11:18;6.00;;;0.50;;
39874;SDS011;25547;52.530;13.194;2023-01-06T06:13:48;13.10;;;2.97;;
39874;SDS011;25547;52.530;13.194;2023-01-06T06:16:22;3.13;;;0.20;;
39874;SDS011;25547;52.530;13.194;2023-01-06T06:18:50;3.78;;;0.47;;
39874;SDS011;25547;52.530;13.194;2023-01-06T06:21:20;5.00;;;0.55;;
39874;SDS011;25547;52.530;13.194;2023-01-06T06:23:56;7.30;;;1.17;;
39874;SDS011;25547;52.530;13.194;2023-01-06T06:26:23;7.18;;;0.70;;
39874;SDS011;25547;52.530;13.194;2023-01-06T06:28:49;5.47;;;0.63;;
39874;SDS011;25547;52.530;13.194;2023-01-06T06:31:16;6.07;;;1.40;;
39874;SDS011;25547;52.530;13.194;2023-01-06T06:33:48;5.75;;;0.93;;
39874;SDS011;25547;52.530;13.194;2023-01-06T06:38:46;3.50;;;0.68;;
39874;SDS011;25547;52.530;13.194;2023-01-06T06:41:13;5.30;;;0.32;;
39874;SDS011;25547;52.530;13.194;2023-01-06T06:43:41;8.18;;;1.80;;
39874;SDS011;25547;52.530;13.194;2023-01-06T06:46:07;11.15;;;1.45;;
39874;SDS011;25547;52.530;13.194;2023-01-06T06:48:34;7.30;;;1.23;;
39874;SDS011;25547;52.530;13.194;2023-01-06T06:51:02;8.45;;;1.83;;
39874;SDS011;25547;52.530;13.194;2023-01-06T06:53:29;5.90;;;0.85;;
39874;SDS011;25547;52.530;13.194;2023-01-06T06:55:56;9.40;;;1.83;;
39874;SDS011;25547;52.530;13.194;2023-01-06T06:58:22;7.65;;;0.88;;
39874;SDS011;25547;52.530;13.194;2023-01-06T07:00:48;6.78;;;1.30;;
39874;SDS011;25547;52.530;13.194;2023-01-06T07:03:14;7.72;;;2.60;;
39874;SDS011;25547;52.530;13.194;2023-01-06T07:05:44;18.67;;;3.08;;
39874;SDS011;25547;52.530;13.194;2023-01-06T07:08:11;5.68;;;2.17;;
39874;SDS011;25547;52.530;13.194;2023-01-06T07:10:37;5.18;;;1.15;;
39874;SDS011;25547;52.530;13.194;2023-01-06T07:13:07;7.32;;;1.70;;
39874;SDS011;25547;52.530;13.194;2023-01-06T07:15:36;10.20;;;2.17;;
39874;SDS011;25547;52.530;13.194;2023-01-06T07:18:06;5.13;;;1.92;;
39874;SDS011;25547;52.530;13.194;2023-01-06T07:20:32;9.32;;;2.58;;
39874;SDS011;25547;52.530;13.194;2023-01-06T07:22:59;7.68;;;3.08;;
39874;SDS011;25547;52.530;13.194;2023-01-06T07:25:25;7.43;;;2.83;;
39874;SDS011;25547;52.530;13.194;2023-01-06T07:27:59;7.07;;;2.78;;
39874;SDS011;25547;52.530;13.194;2023-01-06T07:30:32;9.90;;;4.65;;
39874;SDS011;25547;52.530;13.194;2023-01-06T07:33:01;5.72;;;3.33;;
39874;SDS011;25547;52.530;13.194;2023-01-06T07:35:27;10.20;;;3.63;;
39874;SDS011;25547;52.530;13.194;2023-01-06T07:37:53;8.65;;;3.95;;
39874;SDS011;25547;52.530;13.194;2023-01-06T07:40:25;6.80;;;3.72;;
39874;SDS011;25547;52.530;13.194;2023-01-06T07:42:51;7.15;;;3.45;;
39874;SDS011;25547;52.530;13.194;2023-01-06T07:45:16;11.40;;;3.55;;
39874;SDS011;25547;52.530;13.194;2023-01-06T07:47:44;11.23;;;4.35;;
39874;SDS011;25547;52.530;13.194;2023-01-06T07:50:12;10.05;;;4.50;;
39874;SDS011;25547;52.530;13.194;2023-01-06T07:52:38;8.40;;;4.28;;
39874;SDS011;25547;52.530;13.194;2023-01-06T07:55:04;14.18;;;4.25;;
39874;SDS011;25547;52.530;13.194;2023-01-06T07:57:30;13.57;;;4.22;;
39874;SDS011;25547;52.530;13.194;2023-01-06T07:59:55;13.65;;;4.10;;
39874;SDS011;25547;52.530;13.194;2023-01-06T08:02:23;8.25;;;3.40;;
39874;SDS011;25547;52.530;13.194;2023-01-06T08:04:51;10.15;;;4.93;;
39874;SDS011;25547;52.530;13.194;2023-01-06T08:07:21;27.55;;;13.18;;
39874;SDS011;25547;52.530;13.194;2023-01-06T08:09:52;12.15;;;5.50;;
39874;SDS011;25547;52.530;13.194;2023-01-06T08:12:18;12.65;;;5.40;;
39874;SDS011;25547;52.530;13.194;2023-01-06T08:14:43;17.27;;;6.65;;
39874;SDS011;25547;52.530;13.194;2023-01-06T08:17:09;15.77;;;6.88;;
39874;SDS011;25547;52.530;13.194;2023-01-06T08:19:35;12.27;;;6.20;;
39874;SDS011;25547;52.530;13.194;2023-01-06T08:22:00;15.38;;;5.43;;
39874;SDS011;25547;52.530;13.194;2023-01-06T08:24:28;17.30;;;5.32;;
39874;SDS011;25547;52.530;13.194;2023-01-06T08:26:57;14.20;;;7.03;;
39874;SDS011;25547;52.530;13.194;2023-01-06T08:29:25;17.08;;;7.43;;
39874;SDS011;25547;52.530;13.194;2023-01-06T08:31:51;12.20;;;6.85;;
39874;SDS011;25547;52.530;13.194;2023-01-06T08:34:17;15.80;;;6.10;;
39874;SDS011;25547;52.530;13.194;2023-01-06T08:36:45;14.07;;;5.55;;
39874;SDS011;25547;52.530;13.194;2023-01-06T08:39:11;12.98;;;6.13;;
39874;SDS011;25547;52.530;13.194;2023-01-06T08:41:37;16.48;;;6.18;;
39874;SDS011;25547;52.530;13.194;2023-01-06T08:44:06;15.45;;;6.30;;
39874;SDS011;25547;52.530;13.194;2023-01-06T08:46:32;15.57;;;6.30;;
39874;SDS011;25547;52.530;13.194;2023-01-06T08:48:58;16.38;;;7.68;;
39874;SDS011;25547;52.530;13.194;2023-01-06T08:51:29;16.13;;;6.38;;
39874;SDS011;25547;52.530;13.194;2023-01-06T08:53:55;14.18;;;6.20;;
39874;SDS011;25547;52.530;13.194;2023-01-06T08:56:24;12.43;;;6.00;;
39874;SDS011;25547;52.530;13.194;2023-01-06T08:58:59;14.05;;;7.03;;
39874;SDS011;25547;52.530;13.194;2023-01-06T09:01:35;10.88;;;5.90;;
39874;SDS011;25547;52.530;13.194;2023-01-06T09:04:02;20.17;;;6.68;;
39874;SDS011;25547;52.530;13.194;2023-01-06T09:06:31;23.88;;;5.95;;
39874;SDS011;25547;52.530;13.194;2023-01-06T09:08:57;19.23;;;7.60;;
39874;SDS011;25547;52.530;13.194;2023-01-06T09:11:30;13.52;;;5.72;;
39874;SDS011;25547;52.530;13.194;2023-01-06T09:14:00;14.70;;;5.82;;
39874;SDS011;25547;52.530;13.194;2023-01-06T09:16:28;11.53;;;6.23;;
39874;SDS011;25547;52.530;13.194;2023-01-06T09:18:54;11.80;;;5.78;;
39874;SDS011;25547;52.530;13.194;2023-01-06T09:21:20;18.05;;;6.25;;
39874;SDS011;25547;52.530;13.194;2023-01-06T09:23:47;16.60;;;6.07;;
39874;SDS011;25547;52.530;13.194;2023-01-06T09:26:13;15.77;;;6.47;;
39874;SDS011;25547;52.530;13.194;2023-01-06T09:28:42;12.93;;;5.15;;
39874;SDS011;25547;52.530;13.194;2023-01-06T09:31:11;12.15;;;5.68;;
39874;SDS011;25547;52.530;13.194;2023-01-06T09:33:37;14.30;;;6.03;;
39874;SDS011;25547;52.530;13.194;2023-01-06T09:36:03;14.02;;;5.60;;
39874;SDS011;25547;52.530;13.194;2023-01-06T09:38:29;12.40;;;5.47;;
39874;SDS011;25547;52.530;13.194;2023-01-06T09:45:52;15.15;;;5.78;;
39874;SDS011;25547;52.530;13.194;2023-01-06T09:48:24;11.85;;;5.32;;
39874;SDS011;25547;52.530;13.194;2023-01-06T09:50:56;12.05;;;5.63;;
39874;SDS011;25547;52.530;13.194;2023-01-06T09:53:29;12.65;;;5.00;;
39874;SDS011;25547;52.530;13.194;2023-01-06T09:56:12;18.40;;;6.40;;
39874;SDS011;25547;52.530;13.194;2023-01-06T09:58:51;13.57;;;5.75;;
39874;SDS011;25547;52.530;13.194;2023-01-06T10:01:21;24.20;;;7.72;;
39874;SDS011;25547;52.530;13.194;2023-01-06T10:03:54;12.80;;;5.68;;
39874;SDS011;25547;52.530;13.194;2023-01-06T10:06:29;11.20;;;5.63;;
39874;SDS011;25547;52.530;13.194;2023-01-06T10:22:46;11.70;;;6.00;;
39874;SDS011;25547;52.530;13.194;2023-01-06T10:25:25;14.93;;;6.13;;
39874;SDS011;25547;52.530;13.194;2023-01-06T10:28:37;12.88;;;5.43;;
39874;SDS011;25547;52.530;13.194;2023-01-06T10:30:48;11.23;;;5.32;;
39874;SDS011;25547;52.530;13.194;2023-01-06T10:33:20;9.48;;;4.63;;
39874;SDS011;25547;52.530;13.194;2023-01-06T10:35:53;15.10;;;6.40;;
39874;SDS011;25547;52.530;13.194;2023-01-06T10:38:23;12.63;;;5.40;;
39874;SDS011;25547;52.530;13.194;2023-01-06T10:41:11;18.75;;;6.40;;
39874;SDS011;25547;52.530;13.194;2023-01-06T10:43:53;29.60;;;15.07;;
39874;SDS011;25547;52.530;13.194;2023-01-06T10:46:20;11.88;;;6.60;;
39874;SDS011;25547;52.530;13.194;2023-01-06T10:48:46;11.25;;;5.90;;
39874;SDS011;25547;52.530;13.194;2023-01-06T10:54:00;16.30;;;5.55;;
39874;SDS011;25547;52.530;13.194;2023-01-06T10:56:29;8.98;;;5.20;;
39874;SDS011;25547;52.530;13.194;2023-01-06T10:59:08;14.60;;;6.70;;
39874;SDS011;25547;52.530;13.194;2023-01-06T11:01:35;21.00;;;6.85;;
39874;SDS011;25547;52.530;13.194;2023-01-06T11:04:13;16.10;;;7.15;;
39874;SDS011;25547;52.530;13.194;2023-01-06T11:07:00;14.98;;;5.07;;
39874;SDS011;25547;52.530;13.194;2023-01-06T11:09:40;11.23;;;4.75;;
39874;SDS011;25547;52.530;13.194;2023-01-06T11:12:19;10.98;;;5.22;;
39874;SDS011;25547;52.530;13.194;2023-01-06T11:14:49;10.02;;;5.22;;
39874;SDS011;25547;52.530;13.194;2023-01-06T11:17:23;9.18;;;4.97;;
39874;SDS011;25547;52.530;13.194;2023-01-06T11:22:40;9.63;;;5.35;;
39874;SDS011;25547;52.530;13.194;2023-01-06T11:27:45;10.60;;;4.63;;
39874;SDS011;25547;52.530;13.194;2023-01-06T11:30:30;11.05;;;4.88;;
39874;SDS011;25547;52.530;13.194;2023-01-06T11:33:04;8.65;;;4.68;;
39874;SDS011;25547;52.530;13.194;2023-01-06T11:35:38;7.60;;;4.15;;
39874;SDS011;25547;52.530;13.194;2023-01-06T11:38:09;9.88;;;6.25;;
39874;SDS011;25547;52.530;13.194;2023-01-06T11:40:41;9.68;;;5.47;;
39874;SDS011;25547;52.530;13.194;2023-01-06T11:43:11;11.95;;;4.72;;
39874;SDS011;25547;52.530;13.194;2023-01-06T11:45:45;10.27;;;4.57;;
39874;SDS011;25547;52.530;13.194;2023-01-06T11:48:33;13.07;;;4.70;;
39874;SDS011;25547;52.530;13.194;2023-01-06T11:51:13;7.95;;;4.03;;
39874;SDS011;25547;52.530;13.194;2023-01-06T11:53:52;7.13;;;3.40;;
39874;SDS011;25547;52.530;13.194;2023-01-06T11:56:20;6.82;;;3.05;;
39874;SDS011;25547;52.530;13.194;2023-01-06T12:07:26;2.72;;;0.68;;
39874;SDS011;25547;52.530;13.194;2023-01-06T12:10:03;4.35;;;1.42;;
39874;SDS011;25547;52.530;13.194;2023-01-06T12:12:37;4.15;;;0.60;;
39874;SDS011;25547;52.530;13.194;2023-01-06T12:15:11;3.08;;;0.73;;
39874;SDS011;25547;52.530;13.194;2023-01-06T12:17:50;3.38;;;0.45;;
39874;SDS011;25547;52.530;13.194;2023-01-06T12:20:23;4.03;;;0.50;;
39874;SDS011;25547;52.530;13.194;2023-01-06T12:25:32;3.95;;;0.90;;
39874;SDS011;25547;52.530;13.194;2023-01-06T12:28:03;3.17;;;0.73;;
39874;SDS011;25547;52.530;13.194;2023-01-06T12:30:34;2.33;;;0.20;;
39874;SDS011;25547;52.530;13.194;2023-01-06T12:33:13;4.05;;;0.40;;
39874;SDS011;25547;52.530;13.194;2023-01-06T12:35:48;1.98;;;0.30;;
39874;SDS011;25547;52.530;13.194;2023-01-06T12:41:06;2.58;;;0.30;;
39874;SDS011;25547;52.530;13.194;2023-01-06T12:43:42;2.30;;;0.60;;
39874;SDS011;25547;52.530;13.194;2023-01-06T12:51:16;2.60;;;0.20;;
39874;SDS011;25547;52.530;13.194;2023-01-06T12:53:44;1.38;;;0.20;;
39874;SDS011;25547;52.530;13.194;2023-01-06T13:06:59;3.08;;;0.20;;
39874;SDS011;25547;52.530;13.194;2023-01-06T13:09:39;1.83;;;0.10;;
39874;SDS011;25547;52.530;13.194;2023-01-06T13:17:40;2.60;;;0.10;;
39874;SDS011;25547;52.530;13.194;2023-01-06T13:20:23;4.20;;;0.10;;
39874;SDS011;25547;52.530;13.194;2023-01-06T13:25:37;0.75;;;0.10;;
39874;SDS011;25547;52.530;13.194;2023-01-06T13:40:10;6.15;;;1.25;;
39874;SDS011;25547;52.530;13.194;2023-01-06T13:42:45;1.75;;;0.38;;
39874;SDS011;25547;52.530;13.194;2023-01-06T13:45:13;1.95;;;0.00;;
39874;SDS011;25547;52.530;13.194;2023-01-06T13:47:43;2.05;;;0.08;;
39874;SDS011;25547;52.530;13.194;2023-01-06T13:50:11;1.25;;;0.03;;
39874;SDS011;25547;52.530;13.194;2023-01-06T13:52:39;0.43;;;0.00;;
39874;SDS011;25547;52.530;13.194;2023-01-06T13:55:20;1.27;;;0.00;;
39874;SDS011;25547;52.530;13.194;2023-01-06T13:57:50;0.77;;;0.00;;
39874;SDS011;25547;52.530;13.194;2023-01-06T14:00:19;0.65;;;0.00;;
39874;SDS011;25547;52.530;13.194;2023-01-06T14:07:52;0.40;;;0.00;;
39874;SDS011;25547;52.530;13.194;2023-01-06T14:16:18;2.72;;;0.10;;
39874;SDS011;25547;52.530;13.194;2023-01-06T14:18:41;0.70;;;0.00;;
39874;SDS011;25547;52.530;13.194;2023-01-06T14:23:36;1.05;;;0.00;;
39874;SDS011;25547;52.530;13.194;2023-01-06T14:26:06;0.63;;;0.00;;
39874;SDS011;25547;52.530;13.194;2023-01-06T14:28:32;0.63;;;0.00;;
39874;SDS011;25547;52.530;13.194;2023-01-06T14:33:55;0.68;;;0.10;;
39874;SDS011;25547;52.530;13.194;2023-01-06T14:36:22;0.73;;;0.00;;
39874;SDS011;25547;52.530;13.194;2023-01-06T14:38:51;4.22;;;0.00;;
39874;SDS011;25547;52.530;13.194;2023-01-06T14:44:05;1.13;;;0.35;;
39874;SDS011;25547;52.530;13.194;2023-01-06T14:46:32;0.95;;;0.15;;
39874;SDS011;25547;52.530;13.194;2023-01-06T14:49:11;1.17;;;0.20;;
39874;SDS011;25547;52.530;13.194;2023-01-06T14:51:59;0.85;;;0.00;;
39874;SDS011;25547;52.530;13.194;2023-01-06T14:54:35;1.42;;;0.10;;
39874;SDS011;25547;52.530;13.194;2023-01-06T14:57:21;1.75;;;0.00;;
39874;SDS011;25547;52.530;13.194;2023-01-06T15:00:04;0.32;;;0.00;;
39874;SDS011;25547;52.530;13.194;2023-01-06T15:02:51;0.68;;;0.08;;
39874;SDS011;25547;52.530;13.194;2023-01-06T15:05:29;0.40;;;0.00;;
39874;SDS011;25547;52.530;13.194;2023-01-06T15:10:28;3.00;;;0.10;;
39874;SDS011;25547;52.530;13.194;2023-01-06T15:17:54;0.68;;;0.10;;
39874;SDS011;25547;52.530;13.194;2023-01-06T15:20:31;2.13;;;0.25;;
39874;SDS011;25547;52.530;13.194;2023-01-06T15:23:02;2.30;;;0.63;;
39874;SDS011;25547;52.530;13.194;2023-01-06T15:25:28;2.20;;;0.35;;
39874;SDS011;25547;52.530;13.194;2023-01-06T15:27:57;1.55;;;0.10;;
39874;SDS011;25547;52.530;13.194;2023-01-06T15:30:24;2.25;;;0.30;;
39874;SDS011;25547;52.530;13.194;2023-01-06T15:32:51;1.30;;;0.10;;
39874;SDS011;25547;52.530;13.194;2023-01-06T15:35:24;1.73;;;0.20;;
39874;SDS011;25547;52.530;13.194;2023-01-06T15:37:58;1.15;;;0.20;;
39874;SDS011;25547;52.530;13.194;2023-01-06T15:40:30;1.23;;;0.10;;
39874;SDS011;25547;52.530;13.194;2023-01-06T15:42:59;0.47;;;0.08;;
39874;SDS011;25547;52.530;13.194;2023-01-06T15:45:26;1.60;;;0.10;;
39874;SDS011;25547;52.530;13.194;2023-01-06T15:47:56;1.65;;;0.10;;
39874;SDS011;25547;52.530;13.194;2023-01-06T15:50:24;1.10;;;0.10;;
39874;SDS011;25547;52.530;13.194;2023-01-06T15:52:59;2.55;;;0.10;;
39874;SDS011;25547;52.530;13.194;2023-01-06T15:55:30;2.20;;;0.10;;
39874;SDS011;25547;52.530;13.194;2023-01-06T15:57:59;0.77;;;0.10;;
39874;SDS011;25547;52.530;13.194;2023-01-06T16:00:41;3.80;;;0.10;;
39874;SDS011;25547;52.530;13.194;2023-01-06T16:03:17;0.82;;;0.10;;
39874;SDS011;25547;52.530;13.194;2023-01-06T16:05:45;1.85;;;0.10;;
39874;SDS011;25547;52.530;13.194;2023-01-06T16:08:15;1.35;;;0.10;;
39874;SDS011;25547;52.530;13.194;2023-01-06T16:13:36;1.58;;;0.10;;
39874;SDS011;25547;52.530;13.194;2023-01-06T16:18:53;0.57;;;0.10;;
39874;SDS011;25547;52.530;13.194;2023-01-06T16:21:28;1.00;;;0.10;;
39874;SDS011;25547;52.530;13.194;2023-01-06T16:23:59;1.58;;;0.10;;
39874;SDS011;25547;52.530;13.194;2023-01-06T16:26:32;1.33;;;0.10;;
39874;SDS011;25547;52.530;13.194;2023-01-06T16:29:21;1.75;;;0.10;;
39874;SDS011;25547;52.530;13.194;2023-01-06T16:31:50;3.63;;;0.10;;
39874;SDS011;25547;52.530;13.194;2023-01-06T16:36:45;1.00;;;0.10;;
39874;SDS011;25547;52.530;13.194;2023-01-06T16:39:14;0.85;;;0.10;;
39874;SDS011;25547;52.530;13.194;2023-01-06T16:44:27;0.75;;;0.10;;
39874;SDS011;25547;52.530;13.194;2023-01-06T16:46:55;0.77;;;0.10;;
39874;SDS011;25547;52.530;13.194;2023-01-06T16:49:21;0.90;;;0.10;;
39874;SDS011;25547;52.530;13.194;2023-01-06T16:51:47;0.70;;;0.10;;
39874;SDS011;25547;52.530;13.194;2023-01-06T16:54:16;1.33;;;0.10;;
39874;SDS011;25547;52.530;13.194;2023-01-06T16:56:45;0.93;;;0.10;;
39874;SDS011;25547;52.530;13.194;2023-01-06T16:59:16;1.27;;;0.10;;
39874;SDS011;25547;52.530;13.194;2023-01-06T17:01:46;0.63;;;0.20;;
39874;SDS011;25547;52.530;13.194;2023-01-06T17:04:13;2.83;;;0.10;;
39874;SDS011;25547;52.530;13.194;2023-01-06T17:06:39;0.98;;;0.20;;
39874;SDS011;25547;52.530;13.194;2023-01-06T17:09:17;0.98;;;0.10;;
39874;SDS011;25547;52.530;13.194;2023-01-06T17:11:44;0.68;;;0.10;;
39874;SDS011;25547;52.530;13.194;2023-01-06T17:14:17;1.15;;;0.10;;